createdAt,value
2017-06-13T00:00:39.616Z,3.00
2017-06-13T00:03:08.010Z,2.50
2017-06-13T00:05:36.428Z,2.20
2017-06-13T00:08:04.842Z,2.20
2017-06-13T00:10:33.239Z,3.07
2017-06-13T00:13:01.643Z,3.40
2017-06-13T00:15:30.797Z,3.10
2017-06-13T00:17:59.201Z,2.23
2017-06-13T00:20:27.592Z,2.17
2017-06-13T00:22:56.745Z,2.33
2017-06-13T00:25:25.149Z,2.10
2017-06-13T00:27:53.538Z,2.10
2017-06-13T00:30:22.711Z,2.10
2017-06-13T00:32:51.100Z,2.60
2017-06-13T00:35:19.486Z,2.20
2017-06-13T00:37:47.885Z,2.40
2017-06-13T00:40:16.289Z,2.30
2017-06-13T00:42:44.724Z,3.10
2017-06-13T00:45:13.929Z,2.70
2017-06-13T00:47:43.078Z,3.03
2017-06-13T00:50:11.504Z,2.80
2017-06-13T00:52:40.658Z,2.33
2017-06-13T00:55:09.062Z,3.00
2017-06-13T00:57:37.448Z,2.97
2017-06-13T01:00:06.620Z,2.53
2017-06-13T01:02:35.084Z,2.87
2017-06-13T01:05:03.460Z,3.27
2017-06-13T01:07:31.876Z,3.20
2017-06-13T01:10:00.296Z,3.20
2017-06-13T01:12:28.701Z,2.97
2017-06-13T01:14:57.084Z,2.60
2017-06-13T01:17:26.125Z,2.60
2017-06-13T01:19:55.273Z,2.70
2017-06-13T01:22:23.654Z,3.27
2017-06-13T01:24:52.066Z,2.70
2017-06-13T01:27:21.230Z,3.17
2017-06-13T01:29:49.617Z,2.80
2017-06-13T01:32:18.545Z,3.80
2017-06-13T01:34:47.738Z,2.40
2017-06-13T01:37:16.897Z,2.60
2017-06-13T01:39:45.522Z,3.40
2017-06-13T01:42:14.681Z,3.10
2017-06-13T01:44:42.381Z,2.80
2017-06-13T01:47:11.596Z,2.67
2017-06-13T01:49:40.039Z,2.03
2017-06-13T01:52:08.443Z,2.30
2017-06-13T01:54:36.938Z,3.37
2017-06-13T01:57:05.341Z,2.93
2017-06-13T01:59:33.730Z,2.20
2017-06-13T02:02:02.270Z,2.77
2017-06-13T02:04:30.649Z,2.30
2017-06-13T02:06:59.022Z,3.10
2017-06-13T02:09:27.442Z,2.63
2017-06-13T02:11:55.840Z,2.60
2017-06-13T02:14:24.237Z,3.60
2017-06-13T02:16:53.414Z,2.60
2017-06-13T02:19:21.804Z,3.00
2017-06-13T02:21:50.949Z,3.30
2017-06-13T02:24:19.439Z,2.70
2017-06-13T02:26:47.832Z,2.70
2017-06-13T02:29:16.230Z,2.90
2017-06-13T02:31:44.634Z,2.97
2017-06-13T02:34:13.791Z,2.80
2017-06-13T02:36:42.166Z,2.60
2017-06-13T02:39:10.661Z,2.60
2017-06-13T02:41:39.039Z,2.47
2017-06-13T02:44:07.434Z,3.00
2017-06-13T02:46:36.744Z,4.57
2017-06-13T02:49:05.894Z,2.80
2017-06-13T02:51:34.302Z,3.27
2017-06-13T02:54:03.053Z,2.83
2017-06-13T02:56:31.450Z,3.30
2017-06-13T02:58:59.846Z,2.53
2017-06-13T03:01:29.044Z,2.30
2017-06-13T03:03:57.413Z,2.70
2017-06-13T03:06:25.797Z,2.67
2017-06-13T03:08:54.496Z,2.90
2017-06-13T03:11:23.645Z,2.67
2017-06-13T03:13:52.035Z,2.13
2017-06-13T03:16:20.649Z,2.73
2017-06-13T03:18:49.808Z,1.97
2017-06-13T03:21:18.207Z,4.43
2017-06-13T03:23:46.926Z,2.87
2017-06-13T03:26:15.330Z,3.60
2017-06-13T03:28:43.725Z,2.53
2017-06-13T03:31:12.128Z,2.60
2017-06-13T03:33:40.521Z,3.07
2017-06-13T03:36:09.659Z,1.87
2017-06-13T03:38:38.316Z,2.30
2017-06-13T03:41:06.721Z,2.17
2017-06-13T03:43:35.129Z,1.80
2017-06-13T03:46:03.740Z,2.67
2017-06-13T03:48:32.878Z,2.43
2017-06-13T03:51:01.252Z,2.67
2017-06-13T03:53:30.002Z,2.57
2017-06-13T03:55:58.394Z,2.20
2017-06-13T03:58:26.585Z,2.20
2017-06-13T04:00:55.048Z,2.13
2017-06-13T04:03:23.523Z,2.43
2017-06-13T04:05:51.915Z,2.00
2017-06-13T04:08:20.406Z,3.37
2017-06-13T04:10:48.785Z,2.60
2017-06-13T04:13:17.198Z,2.77
2017-06-13T04:15:45.652Z,2.37
2017-06-13T04:18:14.026Z,2.07
2017-06-13T04:20:42.410Z,1.77
2017-06-13T04:23:11.136Z,2.30
2017-06-13T04:25:39.509Z,2.37
2017-06-13T04:28:07.897Z,2.50
2017-06-13T04:30:36.302Z,2.20
2017-06-13T04:33:04.677Z,2.40
2017-06-13T04:35:33.064Z,3.50
2017-06-13T04:38:01.613Z,2.00
2017-06-13T04:40:30.773Z,2.00
2017-06-13T04:42:59.161Z,2.77
2017-06-13T04:45:27.770Z,3.03
2017-06-13T04:47:56.946Z,3.00
2017-06-13T04:50:25.329Z,2.10
2017-06-13T04:52:54.162Z,3.67
2017-06-13T04:55:22.535Z,2.70
2017-06-13T04:57:50.921Z,4.40
2017-06-13T05:00:19.421Z,2.80
2017-06-13T05:02:47.784Z,3.33
2017-06-13T05:05:16.173Z,2.73
2017-06-13T05:07:44.823Z,3.00
2017-06-13T05:10:13.976Z,2.63
2017-06-13T05:12:42.355Z,2.40
2017-06-13T05:15:11.182Z,2.63
2017-06-13T05:17:40.332Z,2.93
2017-06-13T05:20:08.718Z,2.37
2017-06-13T05:22:37.333Z,3.30
2017-06-13T05:25:06.487Z,3.37
2017-06-13T05:27:34.904Z,2.90
2017-06-13T05:30:04.387Z,2.83
2017-06-13T05:32:32.781Z,3.20
2017-06-13T05:35:01.179Z,3.00
2017-06-13T05:37:30.394Z,4.63
2017-06-13T05:39:59.451Z,2.90
2017-06-13T05:42:27.852Z,4.03
2017-06-13T05:44:57.249Z,3.30
2017-06-13T05:47:26.208Z,3.07
2017-06-13T05:49:54.580Z,2.87
2017-06-13T05:52:23.013Z,3.80
2017-06-13T05:54:51.407Z,2.50
2017-06-13T05:57:19.788Z,3.27
2017-06-13T05:59:48.441Z,3.07
2017-06-13T06:02:17.593Z,3.00
2017-06-13T06:04:45.967Z,4.17
2017-06-13T06:07:14.476Z,3.47
2017-06-13T06:09:42.852Z,2.97
2017-06-13T06:12:11.243Z,3.73
2017-06-13T06:14:40.650Z,2.50
2017-06-13T06:17:09.805Z,4.10
2017-06-13T06:19:38.184Z,3.90
2017-06-13T06:22:07.016Z,3.30
2017-06-13T06:24:36.189Z,3.27
2017-06-13T06:27:04.592Z,2.60
2017-06-13T06:29:33.374Z,2.77
2017-06-13T06:32:02.521Z,3.13
2017-06-13T06:34:30.901Z,3.87
2017-06-13T06:36:59.502Z,3.60
2017-06-13T06:39:27.899Z,3.00
2017-06-13T06:41:55.951Z,2.73
2017-06-13T06:44:24.357Z,3.80
2017-06-13T06:46:53.523Z,2.53
2017-06-13T06:49:21.913Z,5.00
2017-06-13T06:51:50.317Z,3.43
2017-06-13T06:54:19.471Z,3.70
2017-06-13T06:56:47.860Z,3.07
2017-06-13T06:59:16.470Z,4.03
2017-06-13T07:01:45.686Z,4.60
2017-06-13T07:04:14.089Z,3.17
2017-06-13T07:06:42.509Z,4.07
2017-06-13T07:09:10.902Z,3.80
2017-06-13T07:11:40.057Z,3.97
2017-06-13T07:14:08.479Z,5.30
2017-06-13T07:16:36.882Z,3.73
2017-06-13T07:19:05.297Z,3.50
2017-06-13T07:21:34.411Z,4.07
2017-06-13T07:24:02.861Z,4.00
2017-06-13T07:26:31.265Z,3.90
2017-06-13T07:28:59.668Z,3.60
2017-06-13T07:31:28.826Z,4.13
2017-06-13T07:33:57.242Z,3.83
2017-06-13T07:36:26.036Z,3.37
2017-06-13T07:38:55.192Z,4.10
2017-06-13T07:41:23.590Z,3.83
2017-06-13T07:43:52.190Z,2.53
2017-06-13T07:46:21.338Z,3.73
2017-06-13T07:48:49.753Z,3.23
2017-06-13T07:51:18.938Z,3.00
2017-06-13T07:53:47.328Z,3.30
2017-06-13T07:56:16.483Z,4.03
2017-06-13T07:58:45.886Z,3.33
2017-06-13T08:01:14.268Z,3.33
2017-06-13T08:03:42.650Z,3.63
2017-06-13T08:06:11.160Z,3.80
2017-06-13T08:08:39.556Z,3.37
2017-06-13T08:11:08.753Z,4.03
2017-06-13T08:13:38.118Z,4.20
2017-06-13T08:16:06.510Z,3.60
2017-06-13T08:18:34.906Z,3.27
2017-06-13T08:21:04.171Z,3.73
2017-06-13T08:23:32.559Z,3.87
2017-06-13T08:26:00.936Z,3.30
2017-06-13T08:28:29.487Z,3.63
2017-06-13T08:30:57.858Z,3.90
2017-06-13T08:33:26.239Z,3.73
2017-06-13T08:35:54.727Z,4.07
2017-06-13T08:38:23.130Z,3.70
2017-06-13T08:40:51.524Z,3.67
2017-06-13T08:43:20.110Z,3.40
2017-06-13T08:45:48.515Z,3.70
2017-06-13T08:48:16.907Z,3.70
2017-06-13T08:50:45.576Z,3.97
2017-06-13T08:53:13.961Z,3.47
2017-06-13T08:55:42.341Z,4.07
2017-06-13T08:58:10.879Z,3.30
2017-06-13T09:00:39.279Z,3.47
2017-06-13T09:03:08.448Z,3.60
2017-06-13T09:05:36.843Z,3.70
2017-06-13T09:08:06.016Z,4.20
2017-06-13T09:10:34.401Z,3.97
2017-06-13T09:13:02.896Z,3.67
2017-06-13T09:15:31.285Z,4.23
2017-06-13T09:17:59.689Z,3.50
2017-06-13T09:20:28.183Z,2.73
2017-06-13T09:22:56.576Z,3.80
2017-06-13T09:25:24.948Z,3.87
2017-06-13T09:27:53.443Z,3.27
2017-06-13T09:30:21.875Z,2.33
2017-06-13T09:32:50.265Z,3.27
2017-06-13T09:35:18.924Z,3.13
2017-06-13T09:37:48.813Z,3.10
2017-06-13T09:40:17.203Z,3.60
2017-06-13T09:42:46.314Z,2.87
2017-06-13T09:45:14.698Z,2.70
2017-06-13T09:47:43.078Z,3.00
2017-06-13T09:50:11.841Z,2.60
2017-06-13T09:52:40.982Z,3.27
2017-06-13T09:55:09.351Z,2.50
2017-06-13T09:57:39.502Z,3.40
2017-06-13T10:00:07.896Z,2.07
2017-06-13T10:02:36.293Z,2.03
2017-06-13T10:05:06.359Z,2.77
2017-06-13T10:07:34.739Z,2.30
2017-06-13T10:10:03.136Z,1.90
2017-06-13T10:12:31.585Z,2.30
2017-06-13T10:14:59.982Z,2.20
2017-06-13T10:17:28.356Z,2.13
2017-06-13T10:19:57.374Z,2.83
2017-06-13T10:22:25.748Z,3.10
2017-06-13T10:24:54.136Z,1.90
2017-06-13T10:27:22.746Z,2.60
2017-06-13T10:29:51.141Z,2.07
2017-06-13T10:32:19.546Z,3.13
2017-06-13T10:34:48.129Z,2.30
2017-06-13T10:37:16.513Z,2.30
2017-06-13T10:39:44.911Z,3.03
2017-06-13T10:42:13.521Z,2.70
2017-06-13T10:44:41.942Z,2.70
2017-06-13T10:47:10.332Z,2.70
2017-06-13T10:49:39.231Z,3.00
2017-06-13T10:52:07.608Z,3.13
2017-06-13T10:54:36.008Z,2.90
2017-06-13T10:57:04.437Z,3.73
2017-06-13T10:59:32.831Z,5.27
2017-06-13T11:02:01.208Z,3.37
2017-06-13T11:04:29.859Z,2.43
2017-06-13T11:06:58.256Z,3.57
2017-06-13T11:09:26.638Z,2.77
2017-06-13T11:11:55.102Z,2.83
2017-06-13T11:14:23.496Z,3.63
2017-06-13T11:16:51.885Z,3.60
2017-06-13T11:19:20.694Z,3.23
2017-06-13T11:21:49.086Z,3.20
2017-06-13T11:24:17.472Z,3.47
2017-06-13T11:26:46.731Z,3.07
2017-06-13T11:29:15.117Z,3.60
2017-06-13T11:31:43.505Z,3.50
2017-06-13T11:34:11.915Z,3.70
2017-06-13T11:36:40.303Z,4.13
2017-06-13T11:39:08.694Z,4.30
2017-06-13T11:41:37.126Z,4.20
2017-06-13T11:44:05.529Z,3.67
2017-06-13T11:46:34.685Z,4.70
2017-06-13T11:49:03.121Z,3.30
2017-06-13T11:51:31.558Z,3.97
2017-06-13T11:53:59.947Z,3.30
2017-06-13T11:56:28.514Z,3.90
2017-06-13T11:58:56.964Z,3.73
2017-06-13T12:01:25.374Z,3.73
2017-06-13T12:03:53.868Z,3.77
2017-06-13T12:06:22.309Z,3.70
2017-06-13T12:08:50.752Z,3.10
2017-06-13T12:11:19.231Z,3.03
2017-06-13T12:13:47.713Z,3.43
2017-06-13T12:16:16.175Z,3.20
2017-06-13T12:18:44.972Z,4.03
2017-06-13T12:21:13.697Z,3.30
2017-06-13T12:23:42.183Z,3.13
2017-06-13T12:26:12.680Z,2.60
2017-06-13T12:28:41.112Z,2.70
2017-06-13T12:31:09.562Z,3.00
2017-06-13T12:33:38.035Z,2.90
2017-06-13T12:36:06.462Z,3.40
2017-06-13T12:38:34.879Z,3.47
2017-06-13T12:41:03.577Z,2.83
2017-06-13T12:43:32.003Z,4.03
2017-06-13T12:46:00.469Z,3.20
2017-06-13T12:48:28.955Z,3.00
2017-06-13T12:50:57.410Z,2.50
2017-06-13T12:53:25.843Z,2.83
2017-06-13T12:55:54.692Z,2.90
2017-06-13T12:58:23.180Z,3.10
2017-06-13T13:00:51.651Z,2.83
2017-06-13T13:03:20.296Z,2.87
2017-06-13T13:05:48.721Z,4.00
2017-06-13T13:08:17.139Z,3.20
2017-06-13T13:10:45.695Z,3.33
2017-06-13T13:13:15.040Z,3.47
2017-06-13T13:15:43.459Z,3.13
2017-06-13T13:18:12.944Z,3.10
2017-06-13T13:20:41.438Z,3.10
2017-06-13T13:23:11.083Z,3.03
2017-06-13T13:25:39.627Z,3.53
2017-06-13T13:28:08.065Z,3.50
2017-06-13T13:30:36.465Z,3.37
2017-06-13T13:33:05.504Z,3.00
2017-06-13T13:35:33.958Z,3.00
2017-06-13T13:38:02.355Z,3.57
2017-06-13T13:40:30.946Z,3.80
2017-06-13T13:43:00.105Z,3.90
2017-06-13T13:45:28.475Z,3.10
2017-06-13T13:47:56.886Z,3.37
2017-06-13T13:50:25.272Z,3.03
2017-06-13T13:52:53.662Z,3.77
2017-06-13T13:55:22.834Z,4.27
2017-06-13T13:57:51.231Z,3.87
2017-06-13T14:00:20.373Z,3.07
2017-06-13T14:02:49.018Z,3.47
2017-06-13T14:05:17.411Z,2.90
2017-06-13T14:07:45.799Z,3.07
2017-06-13T14:10:14.665Z,3.23
2017-06-13T14:12:43.050Z,3.40
2017-06-13T14:15:11.429Z,3.60
2017-06-13T14:17:40.011Z,4.03
2017-06-13T14:20:08.419Z,3.53
2017-06-13T14:22:36.805Z,4.30
2017-06-13T14:25:05.389Z,3.87
2017-06-13T14:27:33.792Z,3.83
2017-06-13T14:30:02.192Z,4.70
2017-06-13T14:32:30.603Z,3.60
2017-06-13T14:34:59.004Z,3.23
2017-06-13T14:37:27.380Z,4.27
2017-06-13T14:39:56.010Z,4.13
2017-06-13T14:42:25.164Z,4.40
2017-06-13T14:44:53.536Z,5.70
2017-06-13T14:47:22.626Z,3.63
2017-06-13T14:49:51.022Z,4.70
2017-06-13T14:52:19.408Z,3.57
2017-06-13T14:54:48.021Z,4.13
2017-06-13T14:57:16.413Z,4.00
2017-06-13T14:59:44.786Z,4.33
2017-06-13T15:02:13.279Z,4.37
2017-06-13T15:04:41.684Z,4.97
2017-06-13T15:07:10.074Z,4.47
2017-06-13T15:09:38.701Z,4.90
2017-06-13T15:12:07.087Z,5.23
2017-06-13T15:14:35.466Z,5.90
2017-06-13T15:17:03.869Z,5.70
2017-06-13T15:19:32.258Z,4.90
2017-06-13T15:22:00.633Z,5.23
2017-06-13T15:24:29.932Z,5.50
2017-06-13T15:26:58.322Z,5.00
2017-06-13T15:29:26.697Z,5.00
2017-06-13T15:31:55.934Z,4.60
2017-06-13T15:34:25.081Z,4.83
2017-06-13T15:36:53.520Z,4.83
2017-06-13T15:39:22.794Z,5.87
2017-06-13T15:41:51.202Z,5.73
2017-06-13T15:44:19.592Z,5.67
2017-06-13T15:46:48.065Z,5.93
2017-06-13T15:49:16.442Z,5.60
2017-06-13T15:51:44.819Z,5.70
2017-06-13T15:54:13.253Z,5.60
2017-06-13T15:56:41.666Z,5.10
2017-06-13T15:59:10.069Z,4.70
2017-06-13T16:01:38.594Z,4.07
2017-06-13T16:04:07.083Z,5.00
2017-06-13T16:06:35.468Z,5.40
2017-06-13T16:09:03.769Z,5.90
2017-06-13T16:11:32.157Z,5.60
2017-06-13T16:14:00.531Z,6.03
2017-06-13T16:16:28.938Z,6.40
2017-06-13T16:18:57.352Z,6.70
2017-06-13T16:21:25.746Z,5.80
2017-06-13T16:23:55.164Z,5.90
2017-06-13T16:26:23.569Z,6.30
2017-06-13T16:28:51.961Z,5.47
2017-06-13T16:31:20.413Z,6.43
2017-06-13T16:33:48.816Z,6.50
2017-06-13T16:36:17.202Z,5.47
2017-06-13T16:38:45.839Z,5.37
2017-06-13T16:41:14.241Z,5.67
2017-06-13T16:43:42.655Z,5.97
2017-06-13T16:46:11.573Z,6.40
2017-06-13T16:48:40.744Z,6.40
2017-06-13T16:51:09.121Z,6.53
2017-06-13T16:53:37.946Z,7.07
2017-06-13T16:56:07.112Z,6.60
2017-06-13T16:58:35.501Z,6.30
2017-06-13T17:01:03.946Z,6.47
2017-06-13T17:03:32.410Z,6.40
2017-06-13T17:06:00.799Z,6.03
2017-06-13T17:08:29.299Z,6.40
2017-06-13T17:10:57.689Z,5.97
2017-06-13T17:13:26.272Z,6.10
2017-06-13T17:15:54.707Z,6.87
2017-06-13T17:18:23.096Z,5.27
2017-06-13T17:20:51.495Z,6.30
2017-06-13T17:23:19.930Z,6.70
2017-06-13T17:25:48.318Z,7.47
2017-06-13T17:28:16.693Z,6.77
2017-06-13T17:30:45.448Z,6.27
2017-06-13T17:33:14.617Z,6.87
2017-06-13T17:35:43.001Z,7.50
2017-06-13T17:38:11.575Z,6.93
2017-06-13T17:40:39.969Z,7.40
2017-06-13T17:43:08.385Z,6.57
2017-06-13T17:45:37.852Z,6.30
2017-06-13T17:48:06.244Z,6.60
2017-06-13T17:50:34.631Z,6.77
2017-06-13T17:53:03.220Z,5.90
2017-06-13T17:55:31.607Z,8.10
2017-06-13T17:57:59.998Z,6.97
2017-06-13T18:00:28.460Z,8.13
2017-06-13T18:02:56.686Z,7.63
2017-06-13T18:05:25.062Z,7.30
2017-06-13T18:07:53.554Z,8.00
2017-06-13T18:10:21.974Z,8.37
2017-06-13T18:12:50.349Z,7.33
2017-06-13T18:15:18.907Z,9.17
2017-06-13T18:17:48.058Z,8.30
2017-06-13T18:20:16.464Z,7.30
2017-06-13T18:22:45.871Z,7.43
2017-06-13T18:25:14.263Z,6.77
2017-06-13T18:27:43.416Z,8.00
2017-06-13T18:30:13.470Z,8.20
2017-06-13T18:32:42.889Z,7.00
2017-06-13T18:35:11.269Z,8.63
2017-06-13T18:37:40.463Z,8.50
2017-06-13T18:40:08.845Z,8.87
2017-06-13T18:45:31.784Z,9.97
2017-06-13T18:48:02.801Z,9.23
2017-06-13T18:50:32.015Z,8.97
2017-06-13T18:53:00.428Z,8.50
2017-06-13T18:55:28.824Z,8.57
2017-06-13T18:57:57.223Z,8.73
2017-06-13T19:00:26.370Z,9.43
2017-06-13T19:02:55.523Z,10.57
2017-06-13T19:05:23.986Z,9.23
2017-06-13T19:07:52.735Z,8.40
2017-06-13T19:10:21.156Z,8.97
2017-06-13T19:12:49.634Z,8.00
2017-06-13T19:15:18.129Z,7.23
2017-06-13T19:17:46.528Z,7.03
2017-06-13T19:20:14.902Z,8.37
2017-06-13T19:22:43.592Z,7.03
2017-06-13T19:25:12.138Z,7.60
2017-06-13T19:27:40.550Z,7.30
2017-06-13T19:30:09.065Z,7.30
2017-06-13T19:32:38.250Z,7.60
2017-06-13T19:35:07.407Z,7.30
2017-06-13T19:37:35.825Z,7.77
2017-06-13T19:40:04.306Z,7.57
2017-06-13T19:42:33.452Z,7.80
2017-06-13T19:45:02.562Z,7.37
2017-06-13T19:47:30.944Z,7.27
2017-06-13T19:49:59.631Z,7.17
2017-06-13T19:52:28.290Z,7.67
2017-06-13T19:54:56.674Z,7.23
2017-06-13T19:57:25.068Z,6.77
2017-06-13T19:59:53.500Z,6.30
2017-06-13T20:02:21.893Z,7.33
2017-06-13T20:04:50.104Z,6.30
2017-06-13T20:07:18.849Z,6.67
2017-06-13T20:09:47.249Z,7.63
2017-06-13T20:12:15.643Z,7.20
2017-06-13T20:14:44.272Z,6.70
2017-06-13T20:17:12.657Z,7.50
2017-06-13T20:19:41.070Z,7.97
2017-06-13T20:22:09.322Z,7.50
2017-06-13T20:24:37.529Z,7.43
2017-06-13T20:27:11.799Z,7.03
2017-06-13T20:29:40.009Z,6.20
2017-06-13T20:32:08.218Z,7.60
2017-06-13T20:34:37.107Z,6.47
2017-06-13T20:37:05.506Z,6.20
2017-06-13T20:39:34.562Z,6.17
2017-06-13T20:42:03.796Z,6.33
2017-06-13T20:44:32.950Z,6.97
2017-06-13T20:47:01.340Z,6.33
2017-06-13T20:49:29.778Z,5.50
2017-06-13T20:51:58.151Z,6.07
2017-06-13T20:54:26.520Z,5.03
2017-06-13T20:56:54.928Z,6.63
2017-06-13T20:59:23.315Z,6.10
2017-06-13T21:01:51.744Z,5.30
2017-06-13T21:04:20.167Z,6.53
2017-06-13T21:06:48.559Z,6.17
2017-06-13T21:09:16.933Z,5.83
2017-06-13T21:11:46.371Z,5.30
2017-06-13T21:14:14.763Z,6.60
2017-06-13T21:16:43.157Z,6.37
2017-06-13T21:19:11.809Z,6.43
2017-06-13T21:21:40.977Z,6.73
2017-06-13T21:24:09.390Z,6.37
2017-06-13T21:26:38.564Z,6.70
2017-06-13T21:29:06.957Z,6.47
2017-06-13T21:31:36.140Z,6.73
2017-06-13T21:34:04.649Z,8.10
2017-06-13T21:36:33.821Z,8.23
2017-06-13T21:39:02.842Z,8.43
2017-06-13T21:41:31.306Z,8.40
2017-06-13T21:44:00.472Z,8.90
2017-06-13T21:46:28.893Z,7.70
2017-06-13T21:48:58.114Z,9.93
2017-06-13T21:51:26.534Z,8.30
2017-06-13T21:53:54.922Z,7.40
2017-06-13T21:56:24.187Z,8.90
2017-06-13T21:58:52.680Z,8.20
2017-06-13T22:01:21.065Z,7.93
2017-06-13T22:03:49.696Z,8.40
2017-06-13T22:06:18.086Z,8.40
2017-06-13T22:08:46.467Z,8.70
2017-06-13T22:11:14.989Z,8.83
2017-06-13T22:13:43.388Z,9.40
2017-06-13T22:16:12.561Z,7.50
2017-06-13T22:18:41.215Z,8.03
2017-06-13T22:21:09.623Z,8.07
2017-06-13T22:23:37.999Z,7.83
2017-06-13T22:26:06.443Z,7.37
2017-06-13T22:28:34.823Z,6.80
2017-06-13T22:31:03.256Z,7.43
2017-06-13T22:33:31.767Z,7.17
2017-06-13T22:36:00.173Z,6.90
2017-06-13T22:38:28.553Z,7.20
2017-06-13T22:40:57.742Z,7.53
2017-06-13T22:43:26.141Z,7.00
2017-06-13T22:45:54.531Z,6.30
2017-06-13T22:48:22.974Z,7.87
2017-06-13T22:50:51.358Z,6.83
2017-06-13T22:53:19.758Z,7.20
2017-06-13T22:55:48.257Z,7.10
2017-06-13T22:58:16.625Z,7.27
2017-06-13T23:00:45.014Z,7.07
2017-06-13T23:03:14.235Z,6.40
2017-06-13T23:05:43.383Z,6.67
2017-06-13T23:08:11.780Z,6.73
2017-06-13T23:10:40.288Z,7.17
2017-06-13T23:13:09.440Z,7.20
2017-06-13T23:15:37.813Z,7.03
2017-06-13T23:18:06.458Z,7.37
2017-06-13T23:20:34.838Z,7.03
2017-06-13T23:23:03.220Z,7.20
2017-06-13T23:25:31.919Z,6.60
2017-06-13T23:28:00.315Z,6.27
2017-06-13T23:30:28.697Z,6.53
2017-06-13T23:32:57.343Z,6.87
2017-06-13T23:35:25.842Z,7.70
2017-06-13T23:37:54.225Z,7.70
2017-06-13T23:40:23.529Z,7.23
2017-06-13T23:42:51.918Z,6.40
2017-06-13T23:45:20.326Z,6.80
2017-06-13T23:47:49.627Z,6.87
2017-06-13T23:50:18.019Z,6.53
2017-06-13T23:52:47.178Z,7.07
2017-06-13T23:55:16.012Z,7.60
2017-06-13T23:57:44.404Z,7.67
